Terminal Aerodrome Forecast
Issued by NWS

Home | Current Version | Previous Version | Text Only | Print | Product List | Glossary On
Versions: 1 2 3 4 5 6 7 8 9 10 11 12 13 14 15 16 17 18 19 20 21 22 23 24 25 26
000
FTUS45 KREV 062329
TAFTRK
TAF
KTRK 062329Z 0700/0724 26009KT P6SM VCTS SCT050CB BKN080
     FM070300 VRB04KT P6SM SCT080 BKN140
     FM071000 VRB03KT P6SM SCT180
     FM071900 24008KT P6SM VCTS SCT050CB BKN070=

USA.gov is the U.S. government's official web portal to all federal, state and local government web resources and services.